Time;durP1;ratioP1;P1;durP2;ratioP2;P2;SDS_P1;SDS_P2;PMS_P1;PMS_P2;Temp;Humidity;BMP_temperature;BMP_pressure;BME280_temperature;BME280_humidity;BME280_pressure;Samples;Min_cycle;Max_cycle;Signal;HPM_P1;HPM_P2
2022/11/12 00:00:51;;;;;;;8.23;7.82;;;;;;;15.63;59.64;100684.38;5035838;28;20052;-70
2022/11/12 00:03:19;;;;;;;9.20;8.60;;;;;;;15.61;59.87;100681.03;5044092;28;20044;-71
2022/11/12 00:05:48;;;;;;;9.27;8.63;;;;;;;15.53;60.17;100676.13;5050644;28;20052;-73
2022/11/12 00:08:15;;;;;;;8.63;8.13;;;;;;;15.45;60.17;100682.47;5048306;28;20488;-70
2022/11/12 00:10:43;;;;;;;8.93;8.43;;;;;;;15.32;60.55;100661.63;5043541;28;20400;-68
2022/11/12 00:13:10;;;;;;;8.30;7.90;;;;;;;15.33;60.65;100686.63;5038993;28;20050;-68
2022/11/12 00:15:37;;;;;;;8.47;7.97;;;;;;;15.24;61.30;100677.19;5036948;28;20060;-67
2022/11/12 00:18:04;;;;;;;8.67;8.27;;;;;;;15.22;61.28;100673.06;5041298;28;20064;-67
2022/11/12 00:20:30;;;;;;;8.77;8.17;;;;;;;15.17;61.11;100666.34;5032518;28;20072;-67
2022/11/12 00:22:57;;;;;;;8.43;8.03;;;;;;;14.86;61.29;100626.69;5039969;28;20052;-66
2022/11/12 00:25:24;;;;;;;7.77;7.37;;;;;;;15.13;61.24;100670.09;5044899;28;20048;-70
2022/11/12 00:27:51;;;;;;;8.37;7.87;;;;;;;15.15;61.45;100665.00;5036546;28;20051;-68
2022/11/12 00:30:18;;;;;;;8.63;8.13;;;;;;;15.10;61.53;100665.91;5041852;28;20444;-67
2022/11/12 00:32:45;;;;;;;7.78;7.38;;;;;;;15.10;61.36;100677.16;5043840;28;20041;-69
2022/11/12 00:35:12;;;;;;;8.10;7.60;;;;;;;15.11;61.34;100673.22;5035343;28;20609;-69
2022/11/12 00:37:40;;;;;;;8.20;7.80;;;;;;;15.04;61.43;100657.88;5052779;28;20411;-70
2022/11/12 00:40:07;;;;;;;9.30;8.80;;;;;;;15.09;61.76;100674.69;5041609;28;20057;-72
2022/11/12 00:42:34;;;;;;;8.93;8.50;;;;;;;14.96;61.77;100658.59;5038173;28;20050;-72
2022/11/12 00:45:01;;;;;;;9.20;8.70;;;;;;;15.02;61.80;100668.63;5071017;28;20053;-71
2022/11/12 00:47:28;;;;;;;9.23;8.73;;;;;;;15.00;61.96;100660.47;5041459;28;20049;-70
2022/11/12 00:49:55;;;;;;;11.03;10.53;;;;;;;14.95;61.91;100668.19;5041198;28;20049;-70
2022/11/12 00:52:21;;;;;;;9.30;8.70;;;;;;;14.92;62.17;100659.19;5036353;28;20049;-71
2022/11/12 00:54:48;;;;;;;8.67;8.20;;;;;;;14.87;62.25;100656.50;5042658;28;20053;-72
2022/11/12 00:57:15;;;;;;;8.30;7.90;;;;;;;14.90;62.06;100660.66;5074250;28;20041;-70
2022/11/12 00:59:42;;;;;;;8.23;7.83;;;;;;;14.82;62.32;100652.91;5035514;28;20128;-73
2022/11/12 01:02:08;;;;;;;8.93;8.27;;;;;;;14.86;62.31;100656.78;5034370;28;20056;-72
2022/11/12 01:04:35;;;;;;;9.27;8.77;;;;;;;14.71;62.39;100651.44;5041969;28;20072;-75
2022/11/12 01:07:02;;;;;;;8.90;8.43;;;;;;;14.75;62.33;100653.31;5040578;28;20523;-75
2022/11/12 01:09:29;;;;;;;9.70;9.00;;;;;;;14.74;62.54;100651.66;5035821;28;20103;-75
2022/11/12 01:11:55;;;;;;;9.10;8.60;;;;;;;14.78;62.54;100651.88;5037540;28;20045;-74
2022/11/12 01:14:22;;;;;;;8.57;8.10;;;;;;;14.83;62.37;100655.41;5038808;28;20041;-74
2022/11/12 01:16:49;;;;;;;8.47;8.07;;;;;;;14.79;62.52;100651.56;5037822;28;20540;-74
2022/11/12 01:19:16;;;;;;;8.30;7.80;;;;;;;14.83;62.26;100651.78;5045320;28;20076;-75
2022/11/12 01:21:43;;;;;;;9.20;8.27;;;;;;;14.79;62.35;100636.66;5041646;28;20053;-74
2022/11/12 01:24:10;;;;;;;9.00;8.50;;;;;;;14.82;62.24;100644.47;5038682;28;20044;-75
2022/11/12 01:26:38;;;;;;;8.50;7.87;;;;;;;14.73;62.15;100632.25;5035279;28;20045;-76
2022/11/12 01:29:04;;;;;;;11.90;11.30;;;;;;;14.81;62.42;100645.63;5040707;28;20125;-75
2022/11/12 01:31:37;;;;;;;9.97;9.37;;;;;;;14.80;62.01;100639.19;5041516;28;20055;-75
2022/11/12 01:34:06;;;;;;;8.57;8.17;;;;;;;14.75;62.44;100639.25;5036055;28;20044;-76
2022/11/12 01:36:37;;;;;;;9.68;9.10;;;;;;;14.72;62.43;100639.03;5039783;28;20416;-74
2022/11/12 01:39:06;;;;;;;8.53;8.03;;;;;;;14.77;62.45;100636.97;5042300;28;20061;-74
2022/11/12 01:41:37;;;;;;;8.70;8.25;;;;;;;14.71;62.33;100635.38;5043565;28;20472;-73
2022/11/12 01:44:30;;;;;;;8.60;8.20;;;;;;;14.67;62.52;100628.72;5047786;28;20443;-74
2022/11/12 01:46:56;;;;;;;8.33;7.83;;;;;;;14.72;62.66;100633.41;5045747;28;20518;-74
2022/11/12 01:49:46;;;;;;;9.13;8.17;;;;;;;14.57;62.74;100617.66;5035609;28;20060;-74
2022/11/12 01:52:30;;;;;;;7.87;7.47;;;;;;;14.67;62.60;100617.47;5048686;28;20073;-74
2022/11/12 01:55:03;;;;;;;8.30;7.90;;;;;;;14.67;62.49;100612.69;5026359;28;20049;-74
2022/11/12 01:57:35;;;;;;;8.20;7.80;;;;;;;14.66;62.34;100619.44;5050872;28;22208;-73
2022/11/12 02:00:08;;;;;;;8.10;7.70;;;;;;;14.74;62.42;100617.91;5044557;28;20048;-74
2022/11/12 02:02:35;;;;;;;8.73;8.27;;;;;;;14.77;62.02;100617.31;5046622;28;20052;-68
2022/11/12 02:05:06;;;;;;;9.07;8.57;;;;;;;14.78;61.75;100604.91;5038506;28;20060;-65
2022/11/12 02:07:38;;;;;;;8.60;8.10;;;;;;;14.85;61.62;100619.41;5039596;28;20052;-65
2022/11/12 02:10:06;;;;;;;8.50;8.10;;;;;;;14.88;61.56;100609.53;5034904;28;20432;-65
2022/11/12 02:15:19;;;;;;;11.53;10.87;;;;;;;14.84;61.87;100622.53;5040439;28;20047;-65
2022/11/12 02:17:46;;;;;;;9.30;8.80;;;;;;;14.72;62.01;100603.31;5037066;28;20049;-65
2022/11/12 02:20:13;;;;;;;9.83;9.13;;;;;;;14.82;61.67;100610.75;5047138;28;20681;-66
2022/11/12 02:22:40;;;;;;;8.60;8.10;;;;;;;14.74;61.96;100603.84;5051165;28;20074;-66
2022/11/12 02:25:17;;;;;;;9.17;8.67;;;;;;;14.68;61.58;100596.66;5043172;28;20048;-66
2022/11/12 02:27:44;;;;;;;8.57;8.07;;;;;;;14.82;61.78;100608.75;5034954;28;20053;-68
2022/11/12 02:30:12;;;;;;;9.37;8.87;;;;;;;14.77;61.68;100594.81;5073657;28;20458;-69
2022/11/12 02:32:38;;;;;;;8.80;8.30;;;;;;;14.84;61.67;100606.50;5034063;28;20103;-68
2022/11/12 02:35:06;;;;;;;8.33;7.87;;;;;;;14.75;61.82;100583.03;5043379;28;20123;-69
2022/11/12 02:37:32;;;;;;;8.43;8.00;;;;;;;14.73;61.62;100585.31;5053769;28;20415;-68
2022/11/12 02:39:59;;;;;;;8.37;7.97;;;;;;;14.64;61.34;100570.31;5033502;28;20053;-68
2022/11/12 02:42:26;;;;;;;8.20;7.80;;;;;;;14.87;61.26;100600.25;5032928;28;20080;-68
2022/11/12 02:44:53;;;;;;;8.60;8.20;;;;;;;14.86;61.18;100586.50;5036870;28;20045;-67
2022/11/12 02:47:20;;;;;;;8.67;8.20;;;;;;;14.87;61.11;100589.00;5038379;28;20046;-73
2022/11/12 02:49:46;;;;;;;8.23;7.83;;;;;;;14.91;61.34;100595.69;5046787;28;20056;-70
2022/11/12 02:52:13;;;;;;;8.70;8.30;;;;;;;14.75;60.90;100568.16;5043392;28;20049;-68
2022/11/12 02:54:40;;;;;;;8.50;7.90;;;;;;;14.97;60.91;100604.84;5045777;28;20048;-68
2022/11/12 02:57:07;;;;;;;8.07;7.67;;;;;;;14.97;60.76;100598.38;5040559;28;20061;-67
2022/11/12 02:59:33;;;;;;;11.20;10.50;;;;;;;14.97;60.80;100592.75;5041255;28;20392;-70
2022/11/12 03:02:00;;;;;;;8.90;8.50;;;;;;;14.92;60.84;100590.88;5044753;28;20078;-70
2022/11/12 03:04:27;;;;;;;9.20;8.40;;;;;;;14.92;60.71;100580.47;5049721;28;20060;-70
2022/11/12 03:06:54;;;;;;;8.60;8.10;;;;;;;14.97;60.60;100590.78;5033781;28;20046;-70
2022/11/12 03:09:20;;;;;;;9.03;8.33;;;;;;;14.88;60.60;100590.66;5042866;28;20127;-70
2022/11/12 03:11:47;;;;;;;7.90;7.50;;;;;;;14.77;60.55;100572.31;5040041;28;20068;-70
2022/11/12 03:14:14;;;;;;;8.00;7.60;;;;;;;14.90;60.83;100594.00;5042365;28;20632;-70
2022/11/12 03:16:41;;;;;;;8.47;7.97;;;;;;;14.89;61.02;100592.34;5018316;28;20049;-69
2022/11/12 03:19:07;;;;;;;8.13;7.73;;;;;;;14.78;60.96;100573.16;5039637;28;20424;-70
2022/11/12 03:21:34;;;;;;;8.30;7.90;;;;;;;14.74;61.04;100572.94;5038585;28;20049;-79
2022/11/12 03:24:01;;;;;;;8.30;7.83;;;;;;;14.73;61.22;100590.09;5038629;28;20057;-79
2022/11/12 03:26:28;;;;;;;9.00;8.40;;;;;;;14.56;61.44;100557.78;5039676;28;20049;-69
2022/11/12 03:29:01;;;;;;;8.57;8.00;;;;;;;14.68;61.41;100588.22;5045104;28;20041;-78
2022/11/12 03:31:28;;;;;;;8.70;8.10;;;;;;;14.66;61.61;100587.69;5055197;28;20045;-76
2022/11/12 03:33:54;;;;;;;8.50;7.93;;;;;;;14.61;61.75;100576.53;5049679;28;20064;-71
2022/11/12 03:36:24;;;;;;;9.00;8.50;;;;;;;14.54;61.93;100567.66;5037820;28;20056;-71
2022/11/12 03:38:51;;;;;;;8.20;7.60;;;;;;;14.47;62.08;100562.41;5032519;28;20064;-66
2022/11/12 03:41:18;;;;;;;8.10;7.70;;;;;;;14.55;62.02;100574.94;5043938;28;20068;-66
2022/11/12 03:43:45;;;;;;;8.43;8.00;;;;;;;14.57;61.86;100573.50;5034151;28;20049;-65
2022/11/12 03:46:12;;;;;;;8.13;7.63;;;;;;;14.59;61.75;100570.38;5043682;28;20042;-66
2022/11/12 03:48:39;;;;;;;8.10;7.70;;;;;;;14.49;62.07;100564.91;5038621;28;20058;-66
2022/11/12 03:51:05;;;;;;;9.23;8.73;;;;;;;14.54;61.87;100562.88;5039554;28;20041;-65
2022/11/12 03:53:32;;;;;;;8.77;8.13;;;;;;;14.57;61.80;100567.88;5032264;28;20049;-65
2022/11/12 03:55:59;;;;;;;8.77;8.27;;;;;;;14.46;62.06;100550.34;5039205;28;20040;-65
2022/11/12 03:58:26;;;;;;;8.80;8.30;;;;;;;14.34;62.07;100535.09;5049671;28;20055;-66
2022/11/12 04:00:53;;;;;;;8.50;7.93;;;;;;;14.50;61.87;100561.84;5049024;28;20057;-65
2022/11/12 04:03:20;;;;;;;8.77;8.27;;;;;;;14.45;62.23;100559.06;5033884;28;20068;-65
2022/11/12 04:08:36;;;;;;;8.37;7.87;;;;;;;14.39;62.58;100555.53;5037364;28;20417;-65
2022/11/12 04:11:11;;;;;;;9.38;8.88;;;;;;;14.46;62.19;100555.97;5039629;28;20487;-66
2022/11/12 04:13:40;;;;;;;9.03;8.53;;;;;;;14.44;62.22;100557.41;5042111;28;20049;-65
2022/11/12 04:21:50;;;;;;;8.07;7.60;;;;;;;14.47;62.09;100565.22;5044691;28;20054;-66
2022/11/12 04:27:15;;;;;;;8.10;7.70;;;;;;;14.48;62.21;100568.84;5034377;28;20083;-65
2022/11/12 04:32:29;;;;;;;8.03;7.33;;;;;;;14.41;62.33;100569.25;5045219;28;20412;-67
2022/11/12 04:34:56;;;;;;;8.67;8.17;;;;;;;14.38;62.39;100565.06;5038571;28;20061;-65
2022/11/12 04:37:25;;;;;;;7.47;7.17;;;;;;;14.44;62.43;100568.63;5031216;28;20045;-66
2022/11/12 04:39:52;;;;;;;8.07;7.57;;;;;;;14.40;62.30;100560.00;5043347;28;20058;-66
2022/11/12 04:45:08;;;;;;;8.03;7.53;;;;;;;14.22;62.65;100538.34;5039765;28;20050;-66
2022/11/12 04:47:37;;;;;;;7.90;7.50;;;;;;;14.39;62.60;100558.31;5034673;28;20049;-66
2022/11/12 04:50:13;;;;;;;7.85;7.40;;;;;;;14.39;62.62;100577.13;5044850;28;20048;-66
2022/11/12 04:52:40;;;;;;;7.90;7.50;;;;;;;14.13;62.53;100535.41;5035016;28;20078;-66
2022/11/12 04:55:08;;;;;;;7.40;7.00;;;;;;;14.40;62.70;100554.38;5044025;28;20041;-66
2022/11/12 04:57:35;;;;;;;7.40;7.00;;;;;;;14.40;62.57;100554.38;5041395;28;20050;-66
2022/11/12 05:00:03;;;;;;;7.10;6.70;;;;;;;14.40;62.75;100573.19;5039994;28;20053;-66
2022/11/12 05:02:30;;;;;;;7.93;7.47;;;;;;;14.39;62.68;100560.28;5037124;28;20046;-66
2022/11/12 05:04:57;;;;;;;7.30;6.90;;;;;;;14.40;62.81;100574.03;5033405;28;20055;-66
2022/11/12 05:07:24;;;;;;;8.00;7.47;;;;;;;14.40;62.77;100574.03;5035296;28;20080;-66
2022/11/12 05:09:51;;;;;;;7.70;7.20;;;;;;;14.39;62.82;100557.47;5047695;28;20057;-66
2022/11/12 05:12:17;;;;;;;7.30;6.80;;;;;;;14.48;62.77;100580.09;5042627;28;20038;-65
2022/11/12 05:14:44;;;;;;;7.47;6.80;;;;;;;14.46;62.55;100571.94;5041649;28;20049;-65
2022/11/12 05:17:11;;;;;;;7.33;6.83;;;;;;;14.47;62.75;100579.28;5043466;28;20403;-65
2022/11/12 05:19:38;;;;;;;7.30;6.90;;;;;;;14.40;62.84;100567.59;5042281;28;20056;-65
2022/11/12 05:22:05;;;;;;;7.80;7.30;;;;;;;14.48;62.82;100574.47;5047428;28;20053;-66
2022/11/12 05:24:40;;;;;;;7.33;6.93;;;;;;;14.48;62.81;100588.53;5044900;28;20057;-66
2022/11/12 05:27:19;;;;;;;7.70;7.30;;;;;;;14.48;62.72;100585.72;5059527;28;20050;-66
2022/11/12 05:29:46;;;;;;;6.63;6.30;;;;;;;14.37;63.02;100574.66;5055957;28;20049;-66
2022/11/12 05:32:14;;;;;;;8.27;7.77;;;;;;;14.38;62.90;100573.50;5049030;28;20064;-65
2022/11/12 05:34:41;;;;;;;7.50;7.10;;;;;;;14.33;63.23;100576.41;5043958;28;20057;-66
2022/11/12 05:37:10;;;;;;;7.50;7.10;;;;;;;14.34;63.15;100572.44;5042302;28;20061;-66
2022/11/12 05:39:37;;;;;;;7.40;7.00;;;;;;;14.30;63.28;100565.78;5057874;28;20064;-65
2022/11/12 05:42:04;;;;;;;7.53;7.13;;;;;;;14.27;63.57;100566.38;5039098;28;20049;-65
2022/11/12 05:44:39;;;;;;;8.33;7.83;;;;;;;14.23;63.43;100565.31;5036722;28;20056;-65
2022/11/12 05:47:06;;;;;;;7.67;7.17;;;;;;;14.17;63.70;100558.94;5038475;28;20053;-65
2022/11/12 05:49:33;;;;;;;7.87;7.47;;;;;;;14.11;63.76;100550.91;5039659;28;20050;-66
2022/11/12 05:52:00;;;;;;;9.93;7.07;;;;;;;14.04;63.90;100547.63;5034667;28;20052;-66
2022/11/12 05:54:27;;;;;;;7.37;6.97;;;;;;;14.13;63.51;100551.44;5038911;28;20060;-66
2022/11/12 05:56:53;;;;;;;7.33;6.93;;;;;;;14.22;63.54;100558.00;5035844;28;20068;-66
2022/11/12 05:59:21;;;;;;;7.80;7.40;;;;;;;14.24;63.46;100569.78;5045177;28;20049;-65
2022/11/12 06:01:48;;;;;;;7.50;7.10;;;;;;;14.25;63.43;100548.97;5042523;28;20045;-66
2022/11/12 06:04:15;;;;;;;7.23;6.93;;;;;;;14.37;63.23;100563.41;5043269;28;20045;-66
2022/11/12 06:06:43;;;;;;;8.33;7.83;;;;;;;14.44;62.82;100560.22;5039935;28;20049;-66
2022/11/12 06:09:10;;;;;;;7.37;6.97;;;;;;;14.32;62.76;100546.63;5045557;28;20553;-65
2022/11/12 06:11:37;;;;;;;7.50;7.10;;;;;;;14.37;62.73;100557.78;5037071;28;20656;-64
2022/11/12 06:14:04;;;;;;;7.60;7.20;;;;;;;14.40;62.74;100568.41;5039739;28;20053;-67
2022/11/12 06:16:32;;;;;;;8.43;7.93;;;;;;;14.49;62.45;100559.28;5034492;28;20350;-66
2022/11/12 06:18:59;;;;;;;8.60;7.97;;;;;;;14.43;62.41;100562.19;5034575;28;20567;-66
2022/11/12 06:21:26;;;;;;;7.53;6.93;;;;;;;14.27;62.57;100541.09;5033265;28;20397;-66
2022/11/12 06:23:56;;;;;;;7.20;6.80;;;;;;;14.26;62.77;100550.66;5053947;28;20048;-66
2022/11/12 06:26:25;;;;;;;7.20;6.90;;;;;;;14.26;62.79;100561.06;5032728;28;20428;-65
2022/11/12 06:28:52;;;;;;;7.07;6.67;;;;;;;14.28;62.90;100565.22;5038183;28;20057;-66
2022/11/12 06:31:20;;;;;;;7.40;7.00;;;;;;;14.20;63.22;100569.56;5044080;28;20056;-65
2022/11/12 06:33:47;;;;;;;8.10;7.60;;;;;;;14.16;63.15;100565.72;5044568;28;20048;-64
2022/11/12 06:36:17;;;;;;;8.00;7.30;;;;;;;14.23;63.17;100568.13;5064747;28;20048;-66
2022/11/12 06:38:44;;;;;;;8.05;7.63;;;;;;;14.11;63.24;100564.94;5060172;28;20052;-65
2022/11/12 06:41:12;;;;;;;8.10;7.70;;;;;;;14.19;63.04;100569.88;5056817;28;20064;-64
2022/11/12 06:43:40;;;;;;;8.47;8.00;;;;;;;14.15;63.05;100574.41;5048146;28;20396;-65
2022/11/12 06:46:13;;;;;;;7.50;7.03;;;;;;;14.14;63.02;100555.91;5041137;28;20057;-64
2022/11/12 06:48:40;;;;;;;7.60;7.20;;;;;;;14.05;63.17;100547.34;5034675;28;20144;-65
2022/11/12 06:51:16;;;;;;;8.37;7.90;;;;;;;14.17;63.00;100564.56;5032003;28;20079;-64
2022/11/12 06:53:43;;;;;;;8.07;7.57;;;;;;;14.17;63.18;100570.16;5042503;28;20045;-65
2022/11/12 06:56:11;;;;;;;8.23;7.60;;;;;;;14.10;62.92;100550.06;5037483;28;20055;-65
2022/11/12 06:58:38;;;;;;;8.07;7.67;;;;;;;14.18;62.89;100548.53;5043120;28;20389;-65
2022/11/12 07:01:10;;;;;;;7.43;7.03;;;;;;;14.09;62.67;100548.41;5039214;28;20051;-64
2022/11/12 07:03:39;;;;;;;7.87;7.47;;;;;;;14.29;62.50;100583.78;5030495;28;20050;-64
2022/11/12 07:06:08;;;;;;;7.83;7.43;;;;;;;14.27;62.60;100574.81;5035399;28;20484;-64
2022/11/12 07:08:36;;;;;;;7.50;7.10;;;;;;;14.29;62.40;100572.53;5067841;28;20064;-64
2022/11/12 07:11:03;;;;;;;7.60;7.30;;;;;;;14.30;62.19;100568.59;5032353;28;20053;-64
2022/11/12 07:13:32;;;;;;;8.40;7.90;;;;;;;14.28;62.50;100570.84;5040465;28;20046;-64
2022/11/12 07:16:00;;;;;;;8.10;7.60;;;;;;;14.13;62.56;100571.09;5044389;28;20115;-65
2022/11/12 07:18:28;;;;;;;8.47;7.93;;;;;;;14.16;62.68;100588.16;5035521;28;20060;-65
2022/11/12 07:21:03;;;;;;;9.30;8.67;;;;;;;14.21;62.46;100581.63;5042183;28;20053;-65
2022/11/12 07:23:31;;;;;;;8.97;8.40;;;;;;;14.26;62.52;100573.16;5047744;28;20045;-64
2022/11/12 07:26:13;;;;;;;8.50;8.00;;;;;;;14.23;62.44;100585.81;5044037;28;20056;-65
2022/11/12 07:28:40;;;;;;;8.70;8.20;;;;;;;14.21;62.66;100584.44;5035935;28;20049;-64
2022/11/12 07:31:10;;;;;;;9.00;8.40;;;;;;;14.22;62.44;100578.53;5037805;28;20057;-65
2022/11/12 07:33:37;;;;;;;;;;;;;;;13.97;63.28;100584.50;5035012;28;20384;-65
2022/11/12 07:36:05;;;;;;;8.10;7.70;;;;;;;14.14;62.90;100592.41;5038652;28;20411;-65
2022/11/12 07:38:35;;;;;;;11.93;11.33;;;;;;;14.18;62.76;100585.03;5042345;28;20071;-65
2022/11/12 07:41:10;;;;;;;8.55;8.05;;;;;;;14.18;62.84;100597.13;5031295;28;20049;-64
2022/11/12 07:43:38;;;;;;;7.60;7.20;;;;;;;14.37;62.59;100585.88;5042080;28;20057;-67
2022/11/12 07:46:10;;;;;;;8.00;7.60;;;;;;;14.56;62.00;100585.03;5032000;28;20052;-67
2022/11/12 07:48:38;;;;;;;8.27;7.87;;;;;;;14.63;61.88;100588.28;5042661;28;20057;-67
2022/11/12 07:51:11;;;;;;;7.87;7.40;;;;;;;14.67;61.51;100589.38;5038225;28;20049;-68
2022/11/12 07:53:39;;;;;;;7.90;7.50;;;;;;;14.73;61.35;100590.94;5036987;28;20049;-68
2022/11/12 07:56:06;;;;;;;7.83;7.43;;;;;;;14.80;61.17;100605.44;5031675;28;20046;-64
2022/11/12 07:58:34;;;;;;;8.90;8.40;;;;;;;14.85;60.74;100596.91;5034153;28;20076;-68
2022/11/12 08:01:08;;;;;;;8.47;7.83;;;;;;;14.99;60.47;100607.34;5035218;28;20048;-67
2022/11/12 08:03:35;;;;;;;8.60;7.90;;;;;;;15.11;60.47;100608.53;5032268;28;20051;-67
2022/11/12 08:06:03;;;;;;;8.15;7.65;;;;;;;15.23;59.98;100599.59;5040845;28;20495;-66
2022/11/12 08:08:29;;;;;;;8.07;7.68;;;;;;;15.46;59.56;100622.22;5044214;28;20510;-67
2022/11/12 08:10:57;;;;;;;10.73;10.23;;;;;;;15.53;59.30;100606.59;5044285;28;20052;-66
2022/11/12 08:13:24;;;;;;;11.85;11.25;;;;;;;15.79;58.73;100611.72;5032995;28;20053;-65
2022/11/12 08:15:51;;;;;;;8.35;7.95;;;;;;;16.01;57.80;100616.59;5035940;28;20068;-64
2022/11/12 08:18:18;;;;;;;8.27;7.85;;;;;;;16.24;57.73;100611.84;5033595;28;20046;-65
2022/11/12 08:20:45;;;;;;;8.43;7.97;;;;;;;16.34;56.82;100603.13;5035377;28;20053;-65
2022/11/12 08:23:14;;;;;;;9.55;9.05;;;;;;;16.57;56.31;100618.09;5040406;28;20073;-64
2022/11/12 08:25:41;;;;;;;9.27;8.68;;;;;;;16.64;56.01;100612.00;5036238;28;20048;-64
2022/11/12 08:28:08;;;;;;;11.48;10.90;;;;;;;16.85;55.44;100618.00;5044064;28;20518;-65
2022/11/12 08:30:35;;;;;;;8.75;8.35;;;;;;;16.93;54.64;100611.59;5036471;28;20537;-64
2022/11/12 08:33:04;;;;;;;10.18;9.45;;;;;;;17.41;54.39;100614.53;5035871;28;20045;-64
2022/11/12 08:35:31;;;;;;;11.25;10.07;;;;;;;17.59;53.34;100623.91;5042335;28;20526;-64
2022/11/12 08:38:00;;;;;;;9.82;9.23;;;;;;;17.81;52.72;100613.69;5033361;28;20412;-64
2022/11/12 08:40:28;;;;;;;10.05;9.30;;;;;;;17.87;52.49;100621.69;5039500;28;20076;-65
2022/11/12 08:43:04;;;;;;;9.15;8.55;;;;;;;18.16;52.29;100629.59;5044244;28;20049;-65
2022/11/12 08:45:32;;;;;;;8.68;8.23;;;;;;;18.27;51.43;100613.13;5037283;28;20500;-65
2022/11/12 08:48:17;;;;;;;8.40;8.00;;;;;;;18.49;51.27;100631.94;5040392;28;20053;-65
2022/11/12 08:50:44;;;;;;;8.80;8.20;;;;;;;18.41;50.92;100632.75;5038335;28;20071;-64
2022/11/12 08:53:13;;;;;;;9.13;8.63;;;;;;;18.62;50.72;100636.59;5039606;28;20411;-65
2022/11/12 08:55:39;;;;;;;8.98;8.57;;;;;;;18.78;50.49;100622.81;5041260;28;20064;-65
2022/11/12 08:58:07;;;;;;;9.02;8.57;;;;;;;19.04;49.86;100631.28;5037655;28;20075;-65
2022/11/12 09:00:38;;;;;;;9.25;8.52;;;;;;;19.24;49.27;100632.53;5041766;28;20784;-65
2022/11/12 09:03:06;;;;;;;12.05;11.45;;;;;;;19.56;48.86;100621.78;5040125;28;20053;-66
2022/11/12 09:05:34;;;;;;;9.48;8.98;;;;;;;19.85;47.92;100632.34;5048322;28;20045;-65
2022/11/12 09:08:04;;;;;;;12.18;11.48;;;;;;;20.04;47.14;100638.41;5041085;28;20380;-65
2022/11/12 09:10:31;;;;;;;;;;;;;;;19.92;46.81;100634.63;5040822;28;20602;-65
2022/11/12 09:12:58;;;;;;;8.82;8.38;;;;;;;20.23;46.45;100625.78;5039627;28;19921;-64
2022/11/12 09:15:27;;;;;;;9.20;8.60;;;;;;;20.54;46.71;100631.06;5038475;28;20068;-64
2022/11/12 09:18:09;;;;;;;8.95;8.45;;;;;;;20.90;45.47;100638.13;5042184;28;20053;-63
2022/11/12 09:20:36;;;;;;;10.02;9.43;;;;;;;20.91;45.35;100622.75;5037731;28;20060;-64
2022/11/12 09:23:09;;;;;;;9.60;9.10;;;;;;;21.17;45.19;100634.66;5038037;28;20049;-63
2022/11/12 09:25:37;;;;;;;9.18;8.65;;;;;;;21.30;43.95;100629.88;5034202;28;20057;-63
2022/11/12 09:28:13;;;;;;;8.40;7.90;;;;;;;21.63;43.93;100640.34;5033642;28;20492;-64
2022/11/12 09:30:46;;;;;;;11.50;10.60;;;;;;;21.78;44.02;100639.69;5038815;28;20056;-64
2022/11/12 09:33:15;;;;;;;12.05;11.05;;;;;;;21.80;42.77;100642.16;5047043;28;20048;-64
2022/11/12 09:35:42;;;;;;;9.77;9.18;;;;;;;21.80;43.21;100642.97;5034518;28;20060;-64
2022/11/12 09:38:09;;;;;;;9.57;8.98;;;;;;;21.74;42.92;100633.00;5034533;28;20049;-65
2022/11/12 09:40:53;;;;;;;8.88;8.38;;;;;;;21.74;42.63;100641.53;5041471;28;20057;-64
2022/11/12 09:43:26;;;;;;;9.70;9.00;;;;;;;21.54;42.70;100631.94;5033585;28;20049;-64
2022/11/12 09:45:55;;;;;;;10.32;9.52;;;;;;;21.82;42.41;100643.47;5040455;28;20634;-65
2022/11/12 09:48:50;;;;;;;10.35;9.45;;;;;;;21.95;42.18;100632.94;5039469;28;20048;-65
2022/11/12 09:51:30;;;;;;;10.73;9.95;;;;;;;22.05;42.23;100634.44;5048920;28;20085;-65
2022/11/12 09:54:00;;;;;;;9.60;9.00;;;;;;;22.45;42.18;100623.97;5041208;28;20054;-64
2022/11/12 09:56:28;;;;;;;9.32;8.77;;;;;;;22.59;41.23;100637.81;5033509;28;20503;-64
2022/11/12 09:58:55;;;;;;;10.35;9.75;;;;;;;22.84;41.02;100641.44;5043756;28;20048;-64
2022/11/12 10:01:35;;;;;;;8.65;8.13;;;;;;;22.88;39.68;100625.28;5033860;28;20169;-65
2022/11/12 10:04:26;;;;;;;9.45;9.00;;;;;;;22.63;39.86;100641.63;5035914;28;20072;-65
2022/11/12 10:07:03;;;;;;;9.25;8.75;;;;;;;22.56;40.78;100643.41;5034223;28;20044;-64
2022/11/12 10:10:08;;;;;;;15.02;14.18;;;;;;;22.70;40.39;100626.75;5034098;28;20063;-65
2022/11/12 10:12:37;;;;;;;10.20;9.45;;;;;;;23.14;39.45;100643.91;5038650;28;20076;-65
2022/11/12 10:18:28;;;;;;;9.00;8.57;;;;;;;22.81;40.40;100642.16;5032613;28;20420;-64
2022/11/12 10:21:03;;;;;;;10.10;9.57;;;;;;;23.14;39.73;100632.53;5029673;28;20053;-65
2022/11/12 10:23:42;;;;;;;13.50;12.77;;;;;;;23.76;38.13;100636.69;5034293;28;20049;-64
2022/11/12 10:26:16;;;;;;;;;;;;;;;23.67;38.18;100641.72;5036877;28;20060;-64
2022/11/12 10:29:00;;;;;;;8.82;8.43;;;;;;;23.44;37.96;100632.13;5043035;28;20361;-65
2022/11/12 10:31:27;;;;;;;9.25;8.75;;;;;;;23.44;39.15;100638.66;5043735;28;20045;-64
2022/11/12 10:34:10;;;;;;;9.45;8.98;;;;;;;23.23;38.54;100644.59;5069998;28;20045;-64
2022/11/12 10:36:39;;;;;;;10.40;9.73;;;;;;;23.12;39.04;100649.19;5032634;28;20065;-64
2022/11/12 10:39:06;;;;;;;9.63;8.75;;;;;;;23.94;39.14;100647.72;5046255;28;20145;-65
2022/11/12 10:41:33;;;;;;;9.43;8.93;;;;;;;24.06;37.57;100644.75;5030043;28;20049;-64
2022/11/12 10:44:05;;;;;;;10.32;9.63;;;;;;;23.82;38.26;100640.06;5039822;28;20503;-65
2022/11/12 10:46:35;;;;;;;10.75;9.95;;;;;;;23.89;38.54;100651.66;5041003;28;20056;-64
2022/11/12 10:49:03;;;;;;;10.25;9.65;;;;;;;24.05;37.76;100648.81;5032449;28;20049;-65
2022/11/12 10:51:35;;;;;;;10.95;10.02;;;;;;;24.28;37.94;100655.50;5034612;28;20053;-65
2022/11/12 10:54:19;;;;;;;10.05;9.30;;;;;;;24.02;37.39;100649.53;5038911;28;20056;-65
2022/11/12 10:56:48;;;;;;;10.43;9.73;;;;;;;24.30;37.80;100647.38;5036339;28;20483;-65
2022/11/12 10:59:24;;;;;;;10.70;9.75;;;;;;;24.99;37.41;100656.28;5049415;28;20055;-65
2022/11/12 11:01:57;;;;;;;10.52;9.82;;;;;;;24.52;36.13;100631.63;5039891;28;20045;-65
2022/11/12 11:04:34;;;;;;;11.27;10.50;;;;;;;24.43;37.46;100630.16;5045297;28;20408;-65
2022/11/12 11:07:15;;;;;;;10.50;9.80;;;;;;;24.23;37.35;100644.34;5044471;28;20045;-65
2022/11/12 11:09:56;;;;;;;12.02;10.48;;;;;;;24.12;37.43;100632.69;5033927;28;20045;-65
2022/11/12 11:12:29;;;;;;;10.48;9.70;;;;;;;24.68;37.54;100654.38;5032556;28;20159;-65
2022/11/12 11:15:20;;;;;;;10.35;9.55;;;;;;;25.01;36.78;100648.16;5036729;28;20055;-65
2022/11/12 11:17:47;;;;;;;11.85;11.00;;;;;;;25.32;36.50;100642.66;5033666;28;20083;-65
2022/11/12 11:20:24;;;;;;;11.10;10.48;;;;;;;25.84;34.94;100638.34;5043109;28;20056;-65
2022/11/12 11:22:57;;;;;;;12.00;10.98;;;;;;;25.88;35.02;100627.75;5038023;28;20052;-66
2022/11/12 11:25:28;;;;;;;13.90;13.00;;;;;;;26.07;34.94;100612.56;5044206;28;20507;-66
2022/11/12 11:28:25;;;;;;;12.85;11.95;;;;;;;26.62;34.10;100618.69;5039021;28;20060;-65
2022/11/12 11:31:26;;;;;;;12.48;11.77;;;;;;;26.18;34.02;100628.66;5032367;28;20057;-66
2022/11/12 11:34:07;;;;;;;14.07;12.77;;;;;;;26.88;33.83;100620.69;5040825;28;20040;-66
2022/11/12 11:36:34;;;;;;;13.95;12.75;;;;;;;27.57;33.51;100629.69;5041117;28;20057;-65
2022/11/12 11:39:29;;;;;;;13.48;12.43;;;;;;;27.85;33.25;100622.56;5032433;28;20073;-65
2022/11/12 11:42:20;;;;;;;15.65;14.35;;;;;;;27.93;32.38;100624.28;5033604;28;20045;-66
2022/11/12 11:45:23;;;;;;;14.55;13.45;;;;;;;28.35;32.42;100628.69;5048038;28;20068;-64
2022/11/12 11:47:54;;;;;;;14.88;13.75;;;;;;;30.20;31.12;100621.91;5038376;28;20246;-64
2022/11/12 11:50:32;;;;;;;14.10;12.80;;;;;;;31.63;30.13;100621.34;5049977;28;20063;-65
2022/11/12 11:53:24;;;;;;;13.15;12.25;;;;;;;31.59;28.47;100611.88;5040841;28;20049;-66
2022/11/12 11:56:12;;;;;;;9.02;8.18;;;;;;;31.19;28.85;100613.38;5035271;28;20049;-66
2022/11/12 11:59:15;;;;;;;13.43;9.93;;;;;;;31.00;28.44;100600.25;5041438;28;20055;-66
2022/11/12 12:02:10;;;;;;;9.02;8.23;;;;;;;30.82;29.10;100603.22;5031774;28;20049;-66